createdAt,value
2023-12-26T00:00:14.068Z,12.05
2023-12-26T00:02:43.346Z,7.60
2023-12-26T00:05:11.204Z,13.32
2023-12-26T00:07:38.927Z,9.73
2023-12-26T00:10:07.351Z,7.37
2023-12-26T00:12:34.998Z,10.60
2023-12-26T00:15:02.783Z,8.32
2023-12-26T00:17:30.968Z,10.18
2023-12-26T00:19:58.717Z,14.93
2023-12-26T00:22:26.323Z,15.77
2023-12-26T00:24:54.467Z,16.90
2023-12-26T00:27:22.165Z,10.93
2023-12-26T00:29:50.022Z,13.07
2023-12-26T00:32:18.474Z,10.50
2023-12-26T00:34:46.194Z,12.00
2023-12-26T00:37:13.976Z,9.63
2023-12-26T00:39:42.347Z,8.38
2023-12-26T00:42:12.725Z,6.32
2023-12-26T00:44:40.649Z,18.47
2023-12-26T00:47:08.594Z,11.40
2023-12-26T00:49:36.607Z,11.55
2023-12-26T00:52:04.561Z,9.57
2023-12-26T00:54:33.356Z,11.32
2023-12-26T00:57:01.644Z,6.33
2023-12-26T00:59:29.478Z,8.77
2023-12-26T01:02:02.329Z,7.15
2023-12-26T01:04:30.039Z,14.65
2023-12-26T01:06:57.961Z,14.18
2023-12-26T01:09:25.664Z,8.00
2023-12-26T01:11:53.268Z,6.82
2023-12-26T01:14:21.326Z,8.48
2023-12-26T01:16:48.925Z,7.68
2023-12-26T01:19:17.902Z,10.07
2023-12-26T01:21:46.088Z,11.37
2023-12-26T01:24:13.749Z,8.27
2023-12-26T01:26:41.422Z,8.45
2023-12-26T01:29:09.922Z,9.07
2023-12-26T01:31:38.060Z,9.35
2023-12-26T01:34:05.861Z,7.50
2023-12-26T01:36:36.658Z,10.05
2023-12-26T01:39:06.966Z,6.82
2023-12-26T01:41:36.534Z,9.88
2023-12-26T01:44:04.342Z,11.52
2023-12-26T01:46:32.361Z,5.60
2023-12-26T01:49:02.066Z,10.70
2023-12-26T01:51:31.194Z,6.97
2023-12-26T01:54:00.653Z,12.18
2023-12-26T01:56:30.535Z,7.53
2023-12-26T01:58:58.745Z,7.23
2023-12-26T02:01:26.473Z,9.07
2023-12-26T02:03:56.305Z,7.60
2023-12-26T02:06:24.122Z,9.77
2023-12-26T02:08:51.830Z,11.12
2023-12-26T02:11:19.905Z,10.83
2023-12-26T02:13:47.521Z,9.50
2023-12-26T02:16:20.287Z,9.45
2023-12-26T02:18:49.101Z,8.55
2023-12-26T02:21:16.898Z,6.45
2023-12-26T02:23:46.386Z,8.27
2023-12-26T02:26:15.600Z,7.25
2023-12-26T02:28:43.596Z,8.23
2023-12-26T02:31:11.745Z,8.73
2023-12-26T02:33:40.770Z,7.68
2023-12-26T02:36:08.866Z,11.00
2023-12-26T02:38:36.584Z,8.80
2023-12-26T02:41:05.654Z,5.00
2023-12-26T02:43:36.151Z,11.38
2023-12-26T02:46:04.127Z,9.50
2023-12-26T02:48:31.898Z,7.83
2023-12-26T02:50:59.696Z,11.38
2023-12-26T02:53:27.645Z,8.85
2023-12-26T02:55:55.646Z,7.90
2023-12-26T02:58:23.302Z,4.50
2023-12-26T03:00:51.402Z,9.93
2023-12-26T03:03:20.213Z,9.45
2023-12-26T03:05:47.883Z,10.95
2023-12-26T03:08:15.815Z,6.65
2023-12-26T03:10:43.513Z,8.25
2023-12-26T03:13:11.201Z,8.53
2023-12-26T03:15:40.016Z,9.70
2023-12-26T03:18:07.938Z,7.82
2023-12-26T03:20:35.708Z,10.07
2023-12-26T03:23:05.657Z,6.72
2023-12-26T03:25:33.525Z,11.17
2023-12-26T03:28:01.090Z,8.05
2023-12-26T03:30:29.607Z,8.68
2023-12-26T03:32:57.563Z,6.47
2023-12-26T03:35:26.985Z,5.28
2023-12-26T03:37:54.955Z,9.70
2023-12-26T03:40:22.678Z,8.93
2023-12-26T03:42:52.125Z,10.27
2023-12-26T03:45:20.284Z,9.38
2023-12-26T03:47:48.089Z,17.12
2023-12-26T03:50:15.892Z,18.73
2023-12-26T03:52:43.852Z,8.43
2023-12-26T03:55:12.623Z,16.37
2023-12-26T03:57:42.622Z,12.18
2023-12-26T04:00:11.409Z,13.73
2023-12-26T04:02:42.111Z,20.17
2023-12-26T04:05:11.072Z,14.55
2023-12-26T04:07:39.846Z,9.73
2023-12-26T04:10:08.276Z,10.90
2023-12-26T04:12:37.367Z,8.93
2023-12-26T04:15:05.750Z,12.20
2023-12-26T04:17:34.245Z,14.23
2023-12-26T04:20:03.120Z,9.38
2023-12-26T04:22:31.920Z,13.38
2023-12-26T04:24:59.814Z,12.10
2023-12-26T04:27:27.793Z,4.83
2023-12-26T04:29:55.600Z,9.68
2023-12-26T04:32:24.814Z,8.00
2023-12-26T04:34:53.623Z,9.27
2023-12-26T04:37:21.688Z,15.10
2023-12-26T04:39:49.324Z,9.87
2023-12-26T04:42:17.276Z,11.12
2023-12-26T04:44:47.489Z,9.98
2023-12-26T04:47:15.222Z,11.12
2023-12-26T04:49:43.173Z,7.35
2023-12-26T04:52:10.809Z,9.70
2023-12-26T04:54:38.668Z,6.78
2023-12-26T04:57:07.250Z,10.68
2023-12-26T04:59:39.270Z,9.48
2023-12-26T05:02:07.309Z,7.12
2023-12-26T05:04:36.174Z,10.70
2023-12-26T05:07:04.273Z,8.70
2023-12-26T05:09:32.261Z,9.32
2023-12-26T05:12:00.838Z,9.68
2023-12-26T05:14:28.492Z,12.52
2023-12-26T05:16:57.194Z,8.63
2023-12-26T05:19:25.017Z,11.15
2023-12-26T05:21:53.074Z,8.10
2023-12-26T05:24:21.690Z,12.45
2023-12-26T05:26:49.472Z,14.75
2023-12-26T05:29:17.406Z,18.37
2023-12-26T05:31:45.937Z,13.40
2023-12-26T05:34:13.690Z,17.17
2023-12-26T05:36:41.364Z,12.27
2023-12-26T05:39:11.481Z,9.40
2023-12-26T05:41:42.518Z,12.63
2023-12-26T05:44:10.778Z,9.38
2023-12-26T05:46:38.465Z,13.68
2023-12-26T05:49:06.344Z,17.65
2023-12-26T05:51:34.344Z,10.68
2023-12-26T05:54:01.985Z,11.63
2023-12-26T05:56:29.618Z,7.20
2023-12-26T05:58:57.649Z,8.77
2023-12-26T06:01:25.232Z,15.18
2023-12-26T06:03:53.216Z,10.30
2023-12-26T06:06:22.683Z,10.77
2023-12-26T06:08:50.478Z,11.85
2023-12-26T06:11:18.432Z,10.70
2023-12-26T06:13:46.331Z,7.45
2023-12-26T06:16:13.985Z,14.38
2023-12-26T06:18:42.050Z,11.17
2023-12-26T06:21:09.813Z,10.00
2023-12-26T06:23:37.738Z,7.50
2023-12-26T06:26:08.764Z,7.10
2023-12-26T06:28:37.610Z,9.15
2023-12-26T06:31:05.611Z,11.90
2023-12-26T06:33:33.605Z,11.18
2023-12-26T06:36:01.499Z,12.93
2023-12-26T06:38:29.586Z,11.38
2023-12-26T06:40:58.456Z,8.43
2023-12-26T06:43:26.093Z,10.67
2023-12-26T06:45:54.151Z,12.82
2023-12-26T06:48:22.176Z,14.35
2023-12-26T06:50:50.295Z,10.23
2023-12-26T06:53:18.198Z,11.75
2023-12-26T06:55:46.055Z,9.40
2023-12-26T06:58:14.048Z,7.47
2023-12-26T07:00:42.264Z,11.80
2023-12-26T07:03:10.237Z,8.70
2023-12-26T07:05:38.423Z,9.15
2023-12-26T07:08:07.057Z,11.50
2023-12-26T07:10:34.643Z,10.32
2023-12-26T07:13:02.240Z,10.93
2023-12-26T07:15:30.602Z,8.45
2023-12-26T07:17:59.986Z,6.78
2023-12-26T07:20:27.885Z,9.80
2023-12-26T07:22:55.987Z,9.18
2023-12-26T07:25:23.764Z,9.32
2023-12-26T07:27:51.289Z,12.25
2023-12-26T07:30:19.325Z,8.13
2023-12-26T07:32:48.677Z,10.30
2023-12-26T07:35:16.635Z,11.25
2023-12-26T07:37:44.575Z,12.95
2023-12-26T07:40:13.024Z,12.40
2023-12-26T07:42:40.639Z,7.93
2023-12-26T07:45:08.898Z,9.47
2023-12-26T07:47:36.565Z,6.60
2023-12-26T07:50:07.498Z,12.80
2023-12-26T07:52:37.246Z,9.40
2023-12-26T07:55:05.278Z,14.07
2023-12-26T07:57:32.870Z,12.20
2023-12-26T08:00:00.964Z,11.48
2023-12-26T08:02:28.689Z,8.25
2023-12-26T08:04:56.631Z,11.77
2023-12-26T08:07:24.346Z,6.37
2023-12-26T08:09:51.939Z,11.50
2023-12-26T08:12:19.852Z,9.98
2023-12-26T08:14:47.928Z,8.15
2023-12-26T08:17:15.638Z,10.50
2023-12-26T08:19:43.860Z,7.62
2023-12-26T08:22:11.581Z,11.73
2023-12-26T08:24:39.149Z,8.18
2023-12-26T08:27:07.060Z,11.70
2023-12-26T08:29:34.723Z,10.80
2023-12-26T08:32:02.333Z,6.28
2023-12-26T08:34:30.405Z,8.30
2023-12-26T08:36:58.079Z,11.38
2023-12-26T08:39:25.883Z,8.88
2023-12-26T08:41:53.893Z,12.60
2023-12-26T08:44:21.533Z,7.28
2023-12-26T08:46:51.873Z,6.93
2023-12-26T08:49:25.952Z,9.23
2023-12-26T08:51:53.678Z,9.48
2023-12-26T08:54:21.889Z,12.30
2023-12-26T08:56:49.636Z,7.45
2023-12-26T08:59:19.161Z,9.03
2023-12-26T09:01:47.990Z,7.32
2023-12-26T09:04:15.686Z,8.13
2023-12-26T09:06:43.480Z,8.80
2023-12-26T09:09:11.562Z,8.93
2023-12-26T09:11:39.228Z,9.03
2023-12-26T09:14:06.939Z,12.00
2023-12-26T09:16:34.881Z,5.80
2023-12-26T09:19:02.780Z,11.38
2023-12-26T09:21:30.557Z,17.55
2023-12-26T09:23:58.638Z,14.97
2023-12-26T09:26:26.330Z,14.38
2023-12-26T09:28:53.932Z,19.83
2023-12-26T09:31:22.640Z,18.27
2023-12-26T09:33:50.497Z,16.85
2023-12-26T09:36:18.295Z,15.97
2023-12-26T09:38:46.320Z,12.88
2023-12-26T09:41:16.871Z,10.18
2023-12-26T09:43:44.544Z,12.37
2023-12-26T09:46:12.453Z,12.55
2023-12-26T09:48:40.222Z,14.93
2023-12-26T09:51:15.051Z,23.33
2023-12-26T09:53:45.772Z,22.75
2023-12-26T09:56:14.083Z,13.52
2023-12-26T09:58:45.367Z,13.48
2023-12-26T10:01:13.918Z,9.47
2023-12-26T10:03:43.303Z,8.85
2023-12-26T10:06:11.117Z,9.45
2023-12-26T10:08:38.830Z,7.37
2023-12-26T10:11:06.962Z,10.18
2023-12-26T10:13:44.825Z,8.10
2023-12-26T10:16:13.139Z,8.98
2023-12-26T10:18:40.963Z,6.65
2023-12-26T10:21:09.298Z,8.70
2023-12-26T10:23:37.412Z,7.05
2023-12-26T10:26:05.487Z,5.77
2023-12-26T10:28:40.369Z,10.43
2023-12-26T10:31:16.590Z,5.12
2023-12-26T10:33:44.944Z,4.85
2023-12-26T10:36:13.313Z,6.20
2023-12-26T10:38:41.570Z,5.43
2023-12-26T10:41:15.810Z,5.15
2023-12-26T10:43:46.481Z,6.00
2023-12-26T10:46:16.916Z,6.65
2023-12-26T10:48:49.226Z,9.02
2023-12-26T10:51:19.415Z,6.60
2023-12-26T10:53:55.001Z,10.20
2023-12-26T10:56:24.891Z,7.70
2023-12-26T10:58:53.707Z,6.85
2023-12-26T11:01:21.517Z,5.85
2023-12-26T11:04:45.765Z,5.20
2023-12-26T11:08:27.864Z,9.63
2023-12-26T11:12:10.245Z,6.43
2023-12-26T11:15:52.135Z,6.20
2023-12-26T11:19:34.831Z,4.35
2023-12-26T11:23:17.748Z,4.43
2023-12-26T11:27:00.408Z,6.62
2023-12-26T11:30:46.163Z,6.03
2023-12-26T11:34:29.669Z,6.25
2023-12-26T11:38:12.047Z,8.10
2023-12-26T11:41:54.032Z,5.90
2023-12-26T11:45:36.271Z,7.75
2023-12-26T11:49:18.960Z,5.28
2023-12-26T11:53:01.301Z,6.25
2023-12-26T11:56:43.536Z,9.38
2023-12-26T12:00:25.703Z,9.17
2023-12-26T12:04:07.866Z,5.68
2023-12-26T12:07:50.070Z,3.60
2023-12-26T12:11:32.018Z,5.57
2023-12-26T12:15:14.235Z,3.92
2023-12-26T12:18:56.487Z,3.83
2023-12-26T12:22:39.565Z,7.60
2023-12-26T12:26:21.753Z,8.95
2023-12-26T12:30:03.961Z,6.07
2023-12-26T12:33:46.928Z,8.20
2023-12-26T12:37:29.469Z,5.83
2023-12-26T12:41:11.550Z,5.25
2023-12-26T12:44:53.623Z,3.25
2023-12-26T12:48:35.923Z,5.80
2023-12-26T12:52:18.233Z,4.82
2023-12-26T12:56:00.723Z,6.57
2023-12-26T12:59:42.989Z,6.82
2023-12-26T13:03:28.855Z,6.62
2023-12-26T13:07:14.518Z,10.65
2023-12-26T13:10:56.802Z,7.68
2023-12-26T13:14:39.114Z,6.87
2023-12-26T13:18:21.592Z,8.60
2023-12-26T13:22:04.187Z,7.22
2023-12-26T13:25:46.024Z,7.87
2023-12-26T13:29:27.904Z,6.85
2023-12-26T13:33:10.698Z,5.67
2023-12-26T13:36:52.962Z,5.43
2023-12-26T13:40:35.109Z,7.18
2023-12-26T13:44:17.563Z,5.60
2023-12-26T13:47:59.744Z,4.20
2023-12-26T13:51:26.819Z,4.90
2023-12-26T13:54:32.762Z,6.35
2023-12-26T13:57:00.537Z,10.30
2023-12-26T13:59:28.668Z,7.43
2023-12-26T14:02:33.656Z,6.68
2023-12-26T14:05:01.787Z,4.10
2023-12-26T14:07:29.656Z,7.47
2023-12-26T14:09:57.289Z,6.00
2023-12-26T14:13:02.953Z,7.22
2023-12-26T14:15:30.596Z,5.97
2023-12-26T14:18:36.811Z,6.37
2023-12-26T14:21:42.342Z,6.50
2023-12-26T14:24:47.672Z,7.57
2023-12-26T14:27:16.501Z,5.43
2023-12-26T14:29:44.431Z,8.48
2023-12-26T14:32:49.704Z,8.87
2023-12-26T14:35:54.993Z,5.87
2023-12-26T14:38:22.651Z,9.45
2023-12-26T14:41:28.298Z,4.95
2023-12-26T14:43:56.803Z,6.65
2023-12-26T14:47:04.493Z,6.93
2023-12-26T14:50:09.354Z,5.28
2023-12-26T14:53:14.784Z,5.75
2023-12-26T14:55:42.332Z,5.20
2023-12-26T14:58:10.444Z,6.93
2023-12-26T15:01:15.797Z,12.53
2023-12-26T15:03:43.873Z,6.70
2023-12-26T15:06:17.780Z,4.47
2023-12-26T15:08:45.758Z,6.28
2023-12-26T15:11:17.434Z,8.20
2023-12-26T15:13:52.160Z,7.07
2023-12-26T15:16:28.219Z,8.82
2023-12-26T15:18:57.258Z,15.20
2023-12-26T15:21:25.114Z,10.20
2023-12-26T15:23:53.012Z,11.05
2023-12-26T15:26:22.378Z,9.13
2023-12-26T15:28:50.130Z,9.13
2023-12-26T15:31:20.858Z,11.05
2023-12-26T15:33:50.979Z,6.97
2023-12-26T15:36:19.374Z,7.80
2023-12-26T15:38:47.594Z,5.00
2023-12-26T15:41:15.891Z,6.65
2023-12-26T15:43:43.503Z,6.32
2023-12-26T15:46:21.357Z,8.90
2023-12-26T15:48:50.595Z,6.75
2023-12-26T15:51:20.797Z,7.13
2023-12-26T15:53:50.586Z,7.40
2023-12-26T15:56:21.653Z,5.93
2023-12-26T15:58:50.259Z,7.95
2023-12-26T16:01:18.647Z,5.90
2023-12-26T16:03:46.935Z,6.13
2023-12-26T16:06:25.857Z,6.53
2023-12-26T16:08:54.525Z,6.53
2023-12-26T16:11:22.202Z,5.55
2023-12-26T16:13:49.787Z,10.60
2023-12-26T16:16:18.457Z,7.67
2023-12-26T16:18:46.413Z,9.07
2023-12-26T16:21:14.189Z,7.60
2023-12-26T16:23:42.046Z,9.40
2023-12-26T16:26:09.852Z,9.00
2023-12-26T16:28:37.495Z,12.47
2023-12-26T16:31:06.687Z,9.77
2023-12-26T16:33:34.911Z,7.82
2023-12-26T16:36:04.762Z,6.50
2023-12-26T16:38:32.950Z,8.90
2023-12-26T16:41:07.999Z,8.57
2023-12-26T16:43:36.585Z,4.72
2023-12-26T16:46:09.469Z,5.57
2023-12-26T16:48:40.482Z,5.82
2023-12-26T16:51:11.449Z,6.53
2023-12-26T16:53:40.408Z,9.20
2023-12-26T16:56:09.932Z,11.88
2023-12-26T16:58:41.661Z,9.65
2023-12-26T17:01:11.057Z,14.35
2023-12-26T17:03:42.347Z,11.40
2023-12-26T17:06:11.784Z,12.53
2023-12-26T17:08:39.449Z,8.30
2023-12-26T17:11:12.344Z,11.18
2023-12-26T17:13:40.446Z,11.40
2023-12-26T17:16:18.285Z,7.97
2023-12-26T17:18:46.701Z,10.53
2023-12-26T17:21:14.665Z,9.65
2023-12-26T17:23:42.487Z,9.27
2023-12-26T17:26:10.672Z,10.88
2023-12-26T17:28:38.327Z,13.43
2023-12-26T17:31:06.047Z,10.30
2023-12-26T17:33:34.546Z,10.35
2023-12-26T17:36:02.541Z,12.60
2023-12-26T17:38:30.207Z,15.32
2023-12-26T17:40:58.256Z,10.88
2023-12-26T17:43:25.971Z,12.40
2023-12-26T17:45:53.756Z,12.73
2023-12-26T17:48:24.460Z,12.27
2023-12-26T17:50:52.167Z,10.18
2023-12-26T17:53:19.891Z,11.93
2023-12-26T17:55:47.992Z,13.33
2023-12-26T17:58:15.763Z,11.43
2023-12-26T18:00:43.538Z,11.43
2023-12-26T18:03:11.912Z,24.50
2023-12-26T18:05:40.129Z,14.90
2023-12-26T18:08:08.785Z,11.47
2023-12-26T18:10:36.891Z,13.00
2023-12-26T18:13:05.411Z,15.10
2023-12-26T18:15:33.103Z,13.60
2023-12-26T18:18:01.428Z,15.82
2023-12-26T18:20:29.321Z,12.77
2023-12-26T18:22:56.930Z,16.05
2023-12-26T18:25:25.328Z,18.90
2023-12-26T18:27:52.957Z,19.55
2023-12-26T18:30:20.681Z,18.85
2023-12-26T18:32:48.940Z,18.27
2023-12-26T18:35:16.642Z,17.83
2023-12-26T18:37:44.345Z,18.48
2023-12-26T18:40:14.518Z,17.25
2023-12-26T18:42:42.149Z,23.90
2023-12-26T18:45:10.552Z,24.27
2023-12-26T18:47:39.924Z,16.37
2023-12-26T18:50:09.871Z,16.87
2023-12-26T18:52:37.934Z,21.58
2023-12-26T18:55:06.085Z,16.02
2023-12-26T18:57:34.265Z,16.03
2023-12-26T19:00:02.636Z,17.12
2023-12-26T19:02:30.771Z,16.37
2023-12-26T19:04:58.533Z,14.82
2023-12-26T19:07:26.442Z,15.50
2023-12-26T19:09:54.001Z,20.57
2023-12-26T19:12:21.633Z,15.85
2023-12-26T19:14:49.621Z,18.83
2023-12-26T19:17:18.771Z,22.45
2023-12-26T19:19:46.742Z,15.10
2023-12-26T19:22:15.604Z,14.83
2023-12-26T19:24:43.228Z,17.52
2023-12-26T19:27:10.866Z,17.17
2023-12-26T19:29:38.773Z,15.73
2023-12-26T19:32:07.131Z,14.93
2023-12-26T19:34:34.867Z,17.60
2023-12-26T19:37:02.890Z,17.42
2023-12-26T19:39:30.609Z,15.00
2023-12-26T19:41:58.249Z,16.52
2023-12-26T19:44:26.418Z,18.98
2023-12-26T19:46:54.110Z,16.27
2023-12-26T19:49:22.905Z,16.15
2023-12-26T19:51:51.117Z,21.45
2023-12-26T19:54:18.728Z,10.98
2023-12-26T19:56:47.753Z,15.40
2023-12-26T19:59:17.758Z,20.17
2023-12-26T20:01:45.489Z,19.58
2023-12-26T20:04:13.533Z,17.90
2023-12-26T20:06:45.808Z,20.17
2023-12-26T20:09:19.810Z,19.17
2023-12-26T20:11:48.131Z,22.60
2023-12-26T20:14:18.704Z,19.10
2023-12-26T20:16:49.202Z,16.92
2023-12-26T20:19:19.251Z,11.93
2023-12-26T20:21:48.106Z,19.37
2023-12-26T20:24:16.534Z,17.13
2023-12-26T20:26:45.937Z,20.73
2023-12-26T20:29:18.679Z,20.45
2023-12-26T20:31:49.622Z,17.27
2023-12-26T20:34:18.562Z,17.08
2023-12-26T20:36:50.920Z,12.73
2023-12-26T20:39:20.206Z,13.68
2023-12-26T20:41:53.928Z,15.93
2023-12-26T20:44:22.733Z,13.27
2023-12-26T20:46:52.262Z,23.75
2023-12-26T20:49:20.305Z,20.27
2023-12-26T20:51:48.096Z,17.52
2023-12-26T20:54:17.508Z,16.30
2023-12-26T20:56:47.008Z,19.42
2023-12-26T20:59:14.607Z,24.75
2023-12-26T21:01:44.215Z,15.63
2023-12-26T21:04:12.434Z,18.40
2023-12-26T21:06:41.761Z,16.37
2023-12-26T21:09:11.171Z,16.87
2023-12-26T21:11:40.456Z,15.10
2023-12-26T21:14:09.099Z,17.87
2023-12-26T21:16:38.118Z,16.20
2023-12-26T21:19:07.017Z,17.25
2023-12-26T21:21:35.442Z,15.63
2023-12-26T21:24:04.009Z,16.35
2023-12-26T21:26:31.649Z,15.67
2023-12-26T21:28:59.231Z,14.35
2023-12-26T21:31:27.647Z,14.55
2023-12-26T21:33:55.411Z,12.73
2023-12-26T21:36:27.896Z,13.68
2023-12-26T21:38:57.377Z,15.00
2023-12-26T21:41:24.939Z,20.67
2023-12-26T21:43:52.469Z,13.77
2023-12-26T21:46:20.331Z,16.70
2023-12-26T21:48:49.682Z,17.42
2023-12-26T21:51:18.058Z,16.70
2023-12-26T21:53:46.432Z,15.10
2023-12-26T21:56:15.699Z,12.68
2023-12-26T21:58:43.349Z,14.48
2023-12-26T22:01:11.988Z,15.95
2023-12-26T22:03:42.409Z,16.03
2023-12-26T22:06:10.244Z,15.27
2023-12-26T22:08:37.887Z,16.02
2023-12-26T22:11:05.805Z,16.55
2023-12-26T22:13:33.374Z,15.15
2023-12-26T22:16:01.181Z,13.77
2023-12-26T22:18:29.261Z,16.62
2023-12-26T22:20:57.021Z,14.13
2023-12-26T22:23:25.323Z,16.33
2023-12-26T22:25:53.248Z,14.40
2023-12-26T22:28:20.862Z,12.70
2023-12-26T22:30:48.551Z,12.40
2023-12-26T22:33:16.626Z,10.77
2023-12-26T22:35:44.981Z,10.77
2023-12-26T22:38:12.600Z,14.90
2023-12-26T22:40:40.658Z,13.87
2023-12-26T22:43:09.000Z,19.75
2023-12-26T22:45:36.733Z,15.50
2023-12-26T22:48:05.580Z,12.95
2023-12-26T22:50:33.581Z,11.23
2023-12-26T22:53:01.142Z,10.67
2023-12-26T22:55:28.968Z,13.13
2023-12-26T22:57:56.774Z,15.10
2023-12-26T23:00:27.177Z,20.98
2023-12-26T23:02:56.545Z,22.13
2023-12-26T23:05:25.619Z,19.90
2023-12-26T23:07:54.344Z,17.00
2023-12-26T23:10:22.426Z,17.90
2023-12-26T23:12:50.054Z,11.60
2023-12-26T23:15:17.966Z,12.45
2023-12-26T23:17:46.004Z,13.97
2023-12-26T23:20:13.700Z,10.60
2023-12-26T23:22:41.231Z,11.93
2023-12-26T23:25:09.263Z,14.48
2023-12-26T23:27:36.972Z,11.52
2023-12-26T23:30:05.135Z,14.40
2023-12-26T23:32:33.060Z,19.75
2023-12-26T23:35:00.889Z,12.35
2023-12-26T23:37:29.143Z,12.05
2023-12-26T23:39:57.999Z,14.80
2023-12-26T23:42:25.708Z,13.77
2023-12-26T23:44:53.254Z,13.68
2023-12-26T23:47:21.087Z,14.18
2023-12-26T23:49:48.825Z,10.13
2023-12-26T23:52:16.586Z,10.18
2023-12-26T23:54:44.446Z,9.00
2023-12-26T23:57:12.084Z,9.02
2023-12-26T23:59:39.692Z,5.65
